sensor_id;sensor_type;location;lat;lon;timestamp;P1;durP1;ratioP1;P2;durP2;ratioP2
49584;SDS011;35491;49.142;9.210;2022-10-16T14:01:28;4.18;;;2.50;;
49584;SDS011;35491;49.142;9.210;2022-10-16T14:02:35;4.07;;;2.63;;
49584;SDS011;35491;49.142;9.210;2022-10-16T14:03:40;3.42;;;1.90;;
49584;SDS011;35491;49.142;9.210;2022-10-16T14:04:45;3.75;;;1.90;;
49584;SDS011;35491;49.142;9.210;2022-10-16T14:05:49;4.63;;;2.10;;
49584;SDS011;35491;49.142;9.210;2022-10-16T14:06:55;3.55;;;1.90;;
49584;SDS011;35491;49.142;9.210;2022-10-16T14:08:00;4.63;;;2.55;;
49584;SDS011;35491;49.142;9.210;2022-10-16T14:09:11;4.90;;;2.67;;
49584;SDS011;35491;49.142;9.210;2022-10-16T14:10:27;4.00;;;2.13;;
49584;SDS011;35491;49.142;9.210;2022-10-16T14:11:44;4.60;;;2.38;;
49584;SDS011;35491;49.142;9.210;2022-10-16T14:12:58;3.97;;;2.03;;
49584;SDS011;35491;49.142;9.210;2022-10-16T14:14:04;3.53;;;1.80;;
49584;SDS011;35491;49.142;9.210;2022-10-16T14:15:15;5.85;;;1.40;;
49584;SDS011;35491;49.142;9.210;2022-10-16T14:16:22;3.88;;;1.48;;
49584;SDS011;35491;49.142;9.210;2022-10-16T14:17:32;3.65;;;1.88;;
49584;SDS011;35491;49.142;9.210;2022-10-16T14:18:35;3.08;;;1.40;;
49584;SDS011;35491;49.142;9.210;2022-10-16T14:19:45;2.60;;;1.27;;
49584;SDS011;35491;49.142;9.210;2022-10-16T14:20:48;3.92;;;1.25;;
49584;SDS011;35491;49.142;9.210;2022-10-16T14:21:53;5.07;;;1.35;;
49584;SDS011;35491;49.142;9.210;2022-10-16T14:22:58;3.33;;;1.40;;
49584;SDS011;35491;49.142;9.210;2022-10-16T14:24:10;2.95;;;1.50;;
49584;SDS011;35491;49.142;9.210;2022-10-16T14:25:24;3.13;;;1.50;;
49584;SDS011;35491;49.142;9.210;2022-10-16T14:26:28;2.30;;;1.00;;
49584;SDS011;35491;49.142;9.210;2022-10-16T14:27:33;12.88;;;2.03;;
49584;SDS011;35491;49.142;9.210;2022-10-16T14:28:37;3.72;;;1.27;;
49584;SDS011;35491;49.142;9.210;2022-10-16T14:29:45;2.90;;;1.40;;
49584;SDS011;35491;49.142;9.210;2022-10-16T14:31:19;3.22;;;1.30;;
49584;SDS011;35491;49.142;9.210;2022-10-16T14:32:58;3.03;;;1.23;;
49584;SDS011;35491;49.142;9.210;2022-10-16T14:34:00;3.03;;;1.50;;
49584;SDS011;35491;49.142;9.210;2022-10-16T14:35:28;3.33;;;1.60;;
49584;SDS011;35491;49.142;9.210;2022-10-16T14:36:58;4.43;;;1.75;;
49584;SDS011;35491;49.142;9.210;2022-10-16T14:38:14;4.13;;;1.50;;
49584;SDS011;35491;49.142;9.210;2022-10-16T14:39:20;4.32;;;1.25;;
49584;SDS011;35491;49.142;9.210;2022-10-16T14:40:28;5.32;;;1.52;;
49584;SDS011;35491;49.142;9.210;2022-10-16T14:41:31;4.10;;;2.35;;
49584;SDS011;35491;49.142;9.210;2022-10-16T14:42:44;3.78;;;1.80;;
49584;SDS011;35491;49.142;9.210;2022-10-16T14:43:49;3.83;;;1.58;;
49584;SDS011;35491;49.142;9.210;2022-10-16T14:44:55;3.80;;;2.00;;
49584;SDS011;35491;49.142;9.210;2022-10-16T14:45:59;3.45;;;1.88;;
49584;SDS011;35491;49.142;9.210;2022-10-16T14:47:06;5.45;;;1.75;;
49584;SDS011;35491;49.142;9.210;2022-10-16T14:48:16;3.78;;;1.40;;
49584;SDS011;35491;49.142;9.210;2022-10-16T14:49:19;3.30;;;1.40;;
49584;SDS011;35491;49.142;9.210;2022-10-16T14:50:25;3.45;;;1.50;;
49584;SDS011;35491;49.142;9.210;2022-10-16T14:51:27;3.00;;;1.40;;
49584;SDS011;35491;49.142;9.210;2022-10-16T14:52:31;3.55;;;1.50;;
49584;SDS011;35491;49.142;9.210;2022-10-16T14:53:33;3.20;;;1.27;;
49584;SDS011;35491;49.142;9.210;2022-10-16T14:56:06;5.90;;;1.75;;
49584;SDS011;35491;49.142;9.210;2022-10-16T14:57:21;4.47;;;2.00;;
49584;SDS011;35491;49.142;9.210;2022-10-16T14:58:27;5.63;;;2.25;;
49584;SDS011;35491;49.142;9.210;2022-10-16T14:59:30;3.28;;;1.67;;
49584;SDS011;35491;49.142;9.210;2022-10-16T15:00:46;3.80;;;1.65;;
49584;SDS011;35491;49.142;9.210;2022-10-16T15:01:48;3.90;;;1.70;;
49584;SDS011;35491;49.142;9.210;2022-10-16T15:02:53;3.58;;;1.80;;
49584;SDS011;35491;49.142;9.210;2022-10-16T15:04:01;3.80;;;1.70;;
49584;SDS011;35491;49.142;9.210;2022-10-16T15:05:17;5.13;;;1.83;;
49584;SDS011;35491;49.142;9.210;2022-10-16T15:06:33;5.18;;;1.40;;
49584;SDS011;35491;49.142;9.210;2022-10-16T15:08:07;4.57;;;1.77;;
49584;SDS011;35491;49.142;9.210;2022-10-16T15:09:20;3.50;;;1.50;;
49584;SDS011;35491;49.142;9.210;2022-10-16T15:10:27;3.80;;;1.55;;
49584;SDS011;35491;49.142;9.210;2022-10-16T15:11:37;4.05;;;1.42;;
49584;SDS011;35491;49.142;9.210;2022-10-16T15:12:50;4.97;;;1.58;;
49584;SDS011;35491;49.142;9.210;2022-10-16T15:13:53;3.50;;;1.60;;
49584;SDS011;35491;49.142;9.210;2022-10-16T15:14:57;3.13;;;1.40;;
49584;SDS011;35491;49.142;9.210;2022-10-16T15:15:58;3.03;;;1.40;;
49584;SDS011;35491;49.142;9.210;2022-10-16T15:17:02;3.45;;;1.42;;
49584;SDS011;35491;49.142;9.210;2022-10-16T15:18:04;3.20;;;1.30;;
49584;SDS011;35491;49.142;9.210;2022-10-16T15:19:12;3.10;;;1.30;;
49584;SDS011;35491;49.142;9.210;2022-10-16T15:20:18;3.65;;;1.73;;
49584;SDS011;35491;49.142;9.210;2022-10-16T15:21:32;3.35;;;1.55;;
49584;SDS011;35491;49.142;9.210;2022-10-16T15:22:40;3.70;;;1.70;;
49584;SDS011;35491;49.142;9.210;2022-10-16T15:24:18;3.50;;;1.90;;
49584;SDS011;35491;49.142;9.210;2022-10-16T15:25:27;3.75;;;1.70;;
49584;SDS011;35491;49.142;9.210;2022-10-16T15:26:32;3.22;;;1.55;;
49584;SDS011;35491;49.142;9.210;2022-10-16T15:27:36;4.22;;;1.48;;
49584;SDS011;35491;49.142;9.210;2022-10-16T15:28:40;4.32;;;1.70;;
49584;SDS011;35491;49.142;9.210;2022-10-16T15:29:44;3.40;;;1.60;;
49584;SDS011;35491;49.142;9.210;2022-10-16T15:30:46;3.67;;;1.73;;
49584;SDS011;35491;49.142;9.210;2022-10-16T15:31:52;3.53;;;2.00;;
49584;SDS011;35491;49.142;9.210;2022-10-16T15:32:56;5.93;;;2.35;;
49584;SDS011;35491;49.142;9.210;2022-10-16T15:33:58;6.70;;;2.20;;
49584;SDS011;35491;49.142;9.210;2022-10-16T15:35:17;4.75;;;2.10;;
49584;SDS011;35491;49.142;9.210;2022-10-16T15:36:40;3.50;;;1.92;;
49584;SDS011;35491;49.142;9.210;2022-10-16T15:37:44;4.75;;;1.73;;
49584;SDS011;35491;49.142;9.210;2022-10-16T15:38:47;3.47;;;1.70;;
49584;SDS011;35491;49.142;9.210;2022-10-16T15:39:51;4.25;;;1.55;;
49584;SDS011;35491;49.142;9.210;2022-10-16T15:40:55;4.57;;;1.50;;
49584;SDS011;35491;49.142;9.210;2022-10-16T15:42:00;4.53;;;1.73;;
49584;SDS011;35491;49.142;9.210;2022-10-16T15:43:01;4.65;;;1.52;;
49584;SDS011;35491;49.142;9.210;2022-10-16T15:45:57;6.82;;;2.15;;
49584;SDS011;35491;49.142;9.210;2022-10-16T15:47:32;9.65;;;2.28;;
49584;SDS011;35491;49.142;9.210;2022-10-16T15:49:11;7.03;;;2.38;;
49584;SDS011;35491;49.142;9.210;2022-10-16T15:50:57;5.07;;;1.90;;
49584;SDS011;35491;49.142;9.210;2022-10-16T15:52:14;3.97;;;1.90;;
49584;SDS011;35491;49.142;9.210;2022-10-16T15:53:17;5.22;;;2.90;;
49584;SDS011;35491;49.142;9.210;2022-10-16T15:54:21;7.63;;;5.18;;
49584;SDS011;35491;49.142;9.210;2022-10-16T15:55:25;13.13;;;9.10;;
49584;SDS011;35491;49.142;9.210;2022-10-16T15:56:27;11.02;;;7.32;;
49584;SDS011;35491;49.142;9.210;2022-10-16T15:57:33;12.25;;;9.43;;
49584;SDS011;35491;49.142;9.210;2022-10-16T15:58:35;13.20;;;8.32;;
49584;SDS011;35491;49.142;9.210;2022-10-16T15:59:39;8.98;;;6.00;;
49584;SDS011;35491;49.142;9.210;2022-10-16T16:00:41;7.78;;;5.45;;
49584;SDS011;35491;49.142;9.210;2022-10-16T16:01:45;6.30;;;4.35;;
49584;SDS011;35491;49.142;9.210;2022-10-16T16:02:49;5.97;;;3.58;;
49584;SDS011;35491;49.142;9.210;2022-10-16T16:03:55;4.63;;;2.80;;
49584;SDS011;35491;49.142;9.210;2022-10-16T16:04:56;5.82;;;2.70;;
49584;SDS011;35491;49.142;9.210;2022-10-16T16:06:06;4.78;;;2.30;;
49584;SDS011;35491;49.142;9.210;2022-10-16T16:07:12;3.80;;;2.17;;
49584;SDS011;35491;49.142;9.210;2022-10-16T16:08:13;5.32;;;2.08;;
49584;SDS011;35491;49.142;9.210;2022-10-16T16:09:17;4.72;;;2.05;;
49584;SDS011;35491;49.142;9.210;2022-10-16T16:10:19;4.28;;;2.25;;
49584;SDS011;35491;49.142;9.210;2022-10-16T16:11:24;4.18;;;2.55;;
49584;SDS011;35491;49.142;9.210;2022-10-16T16:12:32;5.95;;;2.28;;
49584;SDS011;35491;49.142;9.210;2022-10-16T16:13:59;4.90;;;2.22;;
49584;SDS011;35491;49.142;9.210;2022-10-16T16:15:05;4.72;;;2.13;;
49584;SDS011;35491;49.142;9.210;2022-10-16T16:16:09;5.22;;;2.10;;
49584;SDS011;35491;49.142;9.210;2022-10-16T16:17:14;5.75;;;4.00;;
49584;SDS011;35491;49.142;9.210;2022-10-16T16:18:16;10.18;;;4.28;;
49584;SDS011;35491;49.142;9.210;2022-10-16T16:19:20;4.97;;;2.70;;
49584;SDS011;35491;49.142;9.210;2022-10-16T16:20:25;7.43;;;2.75;;
49584;SDS011;35491;49.142;9.210;2022-10-16T16:21:31;5.57;;;2.10;;
49584;SDS011;35491;49.142;9.210;2022-10-16T16:22:33;5.53;;;2.20;;
49584;SDS011;35491;49.142;9.210;2022-10-16T16:23:37;5.97;;;1.90;;
49584;SDS011;35491;49.142;9.210;2022-10-16T16:24:50;4.85;;;1.98;;
49584;SDS011;35491;49.142;9.210;2022-10-16T16:26:05;4.88;;;1.92;;
49584;SDS011;35491;49.142;9.210;2022-10-16T16:27:13;3.80;;;1.63;;
49584;SDS011;35491;49.142;9.210;2022-10-16T16:28:18;3.45;;;1.65;;
49584;SDS011;35491;49.142;9.210;2022-10-16T16:29:31;3.65;;;1.70;;
49584;SDS011;35491;49.142;9.210;2022-10-16T16:30:33;3.35;;;1.60;;
49584;SDS011;35491;49.142;9.210;2022-10-16T16:31:45;4.60;;;1.80;;
49584;SDS011;35491;49.142;9.210;2022-10-16T16:32:57;3.50;;;1.80;;
49584;SDS011;35491;49.142;9.210;2022-10-16T16:34:16;5.40;;;1.95;;
49584;SDS011;35491;49.142;9.210;2022-10-16T16:35:22;3.85;;;1.70;;
49584;SDS011;35491;49.142;9.210;2022-10-16T16:36:27;4.72;;;1.58;;
49584;SDS011;35491;49.142;9.210;2022-10-16T16:37:35;2.80;;;1.30;;
49584;SDS011;35491;49.142;9.210;2022-10-16T16:38:52;3.63;;;1.55;;
49584;SDS011;35491;49.142;9.210;2022-10-16T16:39:55;5.38;;;1.45;;
49584;SDS011;35491;49.142;9.210;2022-10-16T16:41:10;5.13;;;1.90;;
49584;SDS011;35491;49.142;9.210;2022-10-16T16:42:16;4.93;;;1.60;;
49584;SDS011;35491;49.142;9.210;2022-10-16T16:43:29;3.15;;;1.40;;
49584;SDS011;35491;49.142;9.210;2022-10-16T16:44:32;4.38;;;1.60;;
49584;SDS011;35491;49.142;9.210;2022-10-16T16:45:36;5.72;;;1.70;;
49584;SDS011;35491;49.142;9.210;2022-10-16T16:46:38;7.22;;;2.42;;
49584;SDS011;35491;49.142;9.210;2022-10-16T16:47:43;4.97;;;2.55;;
49584;SDS011;35491;49.142;9.210;2022-10-16T16:48:45;6.07;;;2.67;;
49584;SDS011;35491;49.142;9.210;2022-10-16T16:49:50;4.10;;;2.47;;
49584;SDS011;35491;49.142;9.210;2022-10-16T16:50:57;5.53;;;2.08;;
49584;SDS011;35491;49.142;9.210;2022-10-16T16:52:07;4.13;;;2.25;;
49584;SDS011;35491;49.142;9.210;2022-10-16T16:53:11;5.78;;;3.00;;
49584;SDS011;35491;49.142;9.210;2022-10-16T16:54:16;8.23;;;3.40;;
49584;SDS011;35491;49.142;9.210;2022-10-16T16:55:20;6.00;;;2.60;;
49584;SDS011;35491;49.142;9.210;2022-10-16T16:56:23;5.75;;;2.75;;
49584;SDS011;35491;49.142;9.210;2022-10-16T16:57:28;9.30;;;2.63;;
49584;SDS011;35491;49.142;9.210;2022-10-16T16:58:30;5.40;;;2.80;;
49584;SDS011;35491;49.142;9.210;2022-10-16T16:59:40;5.03;;;2.88;;
49584;SDS011;35491;49.142;9.210;2022-10-16T17:03:16;4.82;;;2.45;;
49584;SDS011;35491;49.142;9.210;2022-10-16T17:05:00;6.97;;;2.40;;
49584;SDS011;35491;49.142;9.210;2022-10-16T17:06:29;9.90;;;3.08;;
49584;SDS011;35491;49.142;9.210;2022-10-16T17:08:08;3.95;;;2.10;;
49584;SDS011;35491;49.142;9.210;2022-10-16T17:09:13;3.75;;;1.95;;
49584;SDS011;35491;49.142;9.210;2022-10-16T17:14:08;4.70;;;2.33;;
49584;SDS011;35491;49.142;9.210;2022-10-16T17:15:20;5.35;;;2.22;;
49584;SDS011;35491;49.142;9.210;2022-10-16T17:16:39;5.25;;;2.90;;
49584;SDS011;35491;49.142;9.210;2022-10-16T17:18:18;5.13;;;2.80;;
49584;SDS011;35491;49.142;9.210;2022-10-16T17:19:25;4.60;;;2.75;;
49584;SDS011;35491;49.142;9.210;2022-10-16T17:21:01;5.05;;;2.88;;
49584;SDS011;35491;49.142;9.210;2022-10-16T17:22:34;5.68;;;3.40;;
49584;SDS011;35491;49.142;9.210;2022-10-16T17:24:01;8.18;;;3.25;;
49584;SDS011;35491;49.142;9.210;2022-10-16T17:25:32;5.80;;;3.40;;
49584;SDS011;35491;49.142;9.210;2022-10-16T17:27:56;6.38;;;3.67;;
49584;SDS011;35491;49.142;9.210;2022-10-16T17:29:37;6.82;;;3.67;;
49584;SDS011;35491;49.142;9.210;2022-10-16T17:42:28;7.28;;;2.90;;
49584;SDS011;35491;49.142;9.210;2022-10-16T19:57:54;8.27;;;5.65;;
49584;SDS011;35491;49.142;9.210;2022-10-16T19:59:00;9.52;;;6.55;;
49584;SDS011;35491;49.142;9.210;2022-10-16T20:00:09;8.73;;;6.40;;
49584;SDS011;35491;49.142;9.210;2022-10-16T20:01:20;8.85;;;5.93;;
49584;SDS011;35491;49.142;9.210;2022-10-16T20:02:30;15.20;;;7.50;;
49584;SDS011;35491;49.142;9.210;2022-10-16T20:03:47;10.18;;;6.78;;
49584;SDS011;35491;49.142;9.210;2022-10-16T20:04:50;10.18;;;6.50;;
49584;SDS011;35491;49.142;9.210;2022-10-16T20:05:56;9.73;;;6.30;;
49584;SDS011;35491;49.142;9.210;2022-10-16T20:07:00;11.15;;;6.63;;
49584;SDS011;35491;49.142;9.210;2022-10-16T20:08:04;7.38;;;5.90;;
49584;SDS011;35491;49.142;9.210;2022-10-16T20:09:09;8.23;;;5.80;;
49584;SDS011;35491;49.142;9.210;2022-10-16T20:12:27;10.13;;;5.65;;
49584;SDS011;35491;49.142;9.210;2022-10-16T20:12:42;8.23;;;6.57;;
49584;SDS011;35491;49.142;9.210;2022-10-16T20:13:59;7.43;;;5.28;;
49584;SDS011;35491;49.142;9.210;2022-10-16T20:15:47;8.32;;;5.60;;
49584;SDS011;35491;49.142;9.210;2022-10-16T20:17:32;8.23;;;5.68;;
49584;SDS011;35491;49.142;9.210;2022-10-16T20:19:15;8.50;;;5.25;;
49584;SDS011;35491;49.142;9.210;2022-10-16T20:20:41;10.27;;;5.80;;
49584;SDS011;35491;49.142;9.210;2022-10-16T20:22:09;8.23;;;5.50;;
49584;SDS011;35491;49.142;9.210;2022-10-16T20:23:16;8.35;;;5.90;;
49584;SDS011;35491;49.142;9.210;2022-10-16T20:24:18;8.10;;;5.43;;
49584;SDS011;35491;49.142;9.210;2022-10-16T20:25:23;7.13;;;4.60;;
49584;SDS011;35491;49.142;9.210;2022-10-16T20:26:24;7.97;;;5.70;;
49584;SDS011;35491;49.142;9.210;2022-10-16T20:27:29;8.32;;;5.43;;
49584;SDS011;35491;49.142;9.210;2022-10-16T20:28:37;10.30;;;5.43;;
49584;SDS011;35491;49.142;9.210;2022-10-16T20:29:42;7.40;;;5.35;;
49584;SDS011;35491;49.142;9.210;2022-10-16T20:30:47;7.25;;;4.70;;
49584;SDS011;35491;49.142;9.210;2022-10-16T20:31:50;7.40;;;4.65;;
49584;SDS011;35491;49.142;9.210;2022-10-16T20:32:55;10.65;;;5.00;;
49584;SDS011;35491;49.142;9.210;2022-10-16T20:34:00;6.78;;;4.47;;
49584;SDS011;35491;49.142;9.210;2022-10-16T20:35:11;6.80;;;4.63;;
49584;SDS011;35491;49.142;9.210;2022-10-16T20:36:13;6.57;;;4.35;;
49584;SDS011;35491;49.142;9.210;2022-10-16T20:37:18;6.43;;;4.47;;
49584;SDS011;35491;49.142;9.210;2022-10-16T20:38:22;6.78;;;4.20;;
49584;SDS011;35491;49.142;9.210;2022-10-16T20:39:32;7.72;;;4.90;;
49584;SDS011;35491;49.142;9.210;2022-10-16T20:40:38;7.38;;;4.50;;
49584;SDS011;35491;49.142;9.210;2022-10-16T20:41:41;7.82;;;4.97;;
49584;SDS011;35491;49.142;9.210;2022-10-16T20:42:45;6.85;;;4.60;;
49584;SDS011;35491;49.142;9.210;2022-10-16T20:43:48;7.07;;;4.68;;
49584;SDS011;35491;49.142;9.210;2022-10-16T20:44:56;7.88;;;4.10;;
49584;SDS011;35491;49.142;9.210;2022-10-16T20:46:00;8.60;;;5.55;;
49584;SDS011;35491;49.142;9.210;2022-10-16T20:47:04;7.80;;;5.22;;
49584;SDS011;35491;49.142;9.210;2022-10-16T20:48:09;7.05;;;5.32;;
49584;SDS011;35491;49.142;9.210;2022-10-16T20:49:11;7.88;;;5.85;;
49584;SDS011;35491;49.142;9.210;2022-10-16T20:50:15;8.60;;;5.00;;
49584;SDS011;35491;49.142;9.210;2022-10-16T20:51:18;10.57;;;5.45;;
49584;SDS011;35491;49.142;9.210;2022-10-16T20:52:23;7.53;;;5.13;;
49584;SDS011;35491;49.142;9.210;2022-10-16T20:53:25;8.15;;;5.38;;
49584;SDS011;35491;49.142;9.210;2022-10-16T20:54:30;6.95;;;5.13;;
49584;SDS011;35491;49.142;9.210;2022-10-16T20:55:34;9.50;;;5.10;;
49584;SDS011;35491;49.142;9.210;2022-10-16T20:56:37;7.47;;;4.90;;
49584;SDS011;35491;49.142;9.210;2022-10-16T20:57:42;7.68;;;5.22;;
49584;SDS011;35491;49.142;9.210;2022-10-16T20:58:43;7.50;;;4.72;;
49584;SDS011;35491;49.142;9.210;2022-10-16T20:59:47;6.50;;;4.47;;
49584;SDS011;35491;49.142;9.210;2022-10-16T21:00:57;8.57;;;4.45;;
49584;SDS011;35491;49.142;9.210;2022-10-16T21:02:08;7.97;;;4.40;;
49584;SDS011;35491;49.142;9.210;2022-10-16T21:03:14;6.80;;;4.65;;
49584;SDS011;35491;49.142;9.210;2022-10-16T21:04:16;7.63;;;4.90;;
49584;SDS011;35491;49.142;9.210;2022-10-16T21:05:20;7.40;;;4.65;;
49584;SDS011;35491;49.142;9.210;2022-10-16T21:06:22;8.73;;;4.78;;
49584;SDS011;35491;49.142;9.210;2022-10-16T21:07:27;7.43;;;4.93;;
49584;SDS011;35491;49.142;9.210;2022-10-16T21:08:28;8.50;;;5.50;;
49584;SDS011;35491;49.142;9.210;2022-10-16T21:09:32;7.80;;;5.50;;
49584;SDS011;35491;49.142;9.210;2022-10-16T21:10:37;9.10;;;5.50;;
49584;SDS011;35491;49.142;9.210;2022-10-16T21:11:38;10.05;;;6.13;;
49584;SDS011;35491;49.142;9.210;2022-10-16T21:12:42;8.25;;;5.05;;
49584;SDS011;35491;49.142;9.210;2022-10-16T21:13:47;9.98;;;5.18;;
49584;SDS011;35491;49.142;9.210;2022-10-16T21:14:58;7.55;;;5.30;;
49584;SDS011;35491;49.142;9.210;2022-10-16T21:16:07;8.48;;;5.47;;
49584;SDS011;35491;49.142;9.210;2022-10-16T21:17:15;7.03;;;4.55;;
49584;SDS011;35491;49.142;9.210;2022-10-16T21:18:20;7.72;;;4.90;;
49584;SDS011;35491;49.142;9.210;2022-10-16T21:19:24;7.10;;;4.60;;
49584;SDS011;35491;49.142;9.210;2022-10-16T21:20:40;7.45;;;5.13;;
49584;SDS011;35491;49.142;9.210;2022-10-16T21:21:42;9.02;;;5.03;;
49584;SDS011;35491;49.142;9.210;2022-10-16T21:22:55;7.90;;;5.30;;
49584;SDS011;35491;49.142;9.210;2022-10-16T21:24:00;10.32;;;5.75;;
49584;SDS011;35491;49.142;9.210;2022-10-16T21:25:05;8.60;;;5.50;;
49584;SDS011;35491;49.142;9.210;2022-10-16T21:26:08;8.90;;;5.38;;
49584;SDS011;35491;49.142;9.210;2022-10-16T21:27:12;7.65;;;5.05;;
49584;SDS011;35491;49.142;9.210;2022-10-16T21:28:14;7.72;;;4.70;;
49584;SDS011;35491;49.142;9.210;2022-10-16T21:29:20;8.88;;;4.97;;
49584;SDS011;35491;49.142;9.210;2022-10-16T21:30:23;7.30;;;4.88;;
49584;SDS011;35491;49.142;9.210;2022-10-16T21:31:44;7.80;;;5.03;;
49584;SDS011;35491;49.142;9.210;2022-10-16T21:32:48;7.88;;;4.93;;
49584;SDS011;35491;49.142;9.210;2022-10-16T21:33:52;12.18;;;5.72;;
49584;SDS011;35491;49.142;9.210;2022-10-16T21:34:59;7.65;;;5.32;;
49584;SDS011;35491;49.142;9.210;2022-10-16T21:36:00;8.00;;;5.30;;
49584;SDS011;35491;49.142;9.210;2022-10-16T21:37:10;9.13;;;5.97;;
49584;SDS011;35491;49.142;9.210;2022-10-16T21:38:14;8.43;;;5.78;;
49584;SDS011;35491;49.142;9.210;2022-10-16T21:39:19;9.02;;;5.60;;
49584;SDS011;35491;49.142;9.210;2022-10-16T21:40:23;8.43;;;5.20;;
49584;SDS011;35491;49.142;9.210;2022-10-16T21:41:31;7.50;;;5.55;;
49584;SDS011;35491;49.142;9.210;2022-10-16T21:42:41;7.88;;;5.28;;
49584;SDS011;35491;49.142;9.210;2022-10-16T21:43:45;7.90;;;5.43;;
49584;SDS011;35491;49.142;9.210;2022-10-16T21:44:51;8.07;;;5.20;;
49584;SDS011;35491;49.142;9.210;2022-10-16T21:45:53;7.45;;;5.13;;
49584;SDS011;35491;49.142;9.210;2022-10-16T21:47:02;8.77;;;5.38;;
49584;SDS011;35491;49.142;9.210;2022-10-16T21:48:08;8.10;;;5.28;;
49584;SDS011;35491;49.142;9.210;2022-10-16T21:49:13;9.23;;;5.45;;
49584;SDS011;35491;49.142;9.210;2022-10-16T21:50:18;9.90;;;5.32;;
49584;SDS011;35491;49.142;9.210;2022-10-16T21:51:25;7.95;;;5.07;;
49584;SDS011;35491;49.142;9.210;2022-10-16T21:52:32;7.80;;;5.13;;
